Terminal Aerodrome Forecast
Issued by NWS Wilmington, OH

Current Version | Previous Version | Graphics & Text | Print | Product List | Glossary On
Versions: 1 2 3 4 5 6 7 8 9 10 11 12 13 14 15 16 17 18 19 20 21
000
FTUS41 KILN 160911 AAB
TAFILN
TAF AMD
KILN 160911Z 1609/1706 26013KT P6SM SCT015
     FM161000 27012G25KT P6SM OVC012
     FM161200 27010KT P6SM OVC012
     FM161800 29011KT P6SM BKN025
     FM170000 30008KT P6SM SCT025 SCT250=

USA.gov is the U.S. government's official web portal to all federal, state and local government web resources and services.